.
WxDataArchive / Data Records for 2012-01-25
2012-01-24 January 2012 2012-01-26

Data Records for Wednesday, 25 January 2012

Time	Temp	Chill	HIndex	Humid	Dewpt	 Wind 	HiWind	WindDir	Rain 	Barom 
-----	----	-----	------	-----	-----	------	------	-------	-----	----- 
00:00	25.3	25.3	25.3	89	22.5	0	0	---	0.00	30.346 
00:05	25.1	25.1	25.1	89	22.3	0	0	---	0.00	30.346 
00:10	25.1	25.1	25.1	89	22.3	0	0	---	0.00	30.346 
00:15	24.8	24.8	24.8	89	22.0	0	0	---	0.00	30.340 
00:20	24.7	24.7	24.7	89	21.9	0	0	---	0.00	30.340 
00:25	24.5	24.5	24.5	89	21.7	0	0	---	0.00	30.340 
00:30	24.4	24.4	24.4	89	21.6	0	0	---	0.00	30.346 
00:35	24.2	24.2	24.2	89	21.4	0	0	---	0.00	30.346 
00:40	24.1	24.1	24.1	89	21.3	0	0	---	0.00	30.346 
00:45	23.8	23.8	23.8	89	21.0	0	0	---	0.00	30.347 
00:50	23.6	23.6	23.6	89	20.8	0	0	---	0.00	30.347 
00:55	23.6	23.6	23.6	89	20.8	0	0	---	0.00	30.347 
01:00	23.5	23.5	23.5	89	20.7	0	0	---	0.00	30.357 
01:05	23.3	23.3	23.3	89	20.5	0	0	---	0.00	30.357 
01:10	23.2	23.2	23.2	89	20.4	0	0	---	0.00	30.357 
01:15	23.2	23.2	23.2	90	20.7	0	0	---	0.00	30.386 
01:20	23.2	23.2	23.2	90	20.7	0	0	---	0.00	30.386 
01:25	23.2	23.2	23.2	90	20.7	0	0	---	0.00	30.386 
01:30	23.3	23.3	23.3	90	20.8	0	0	---	0.00	30.385 
01:35	23.5	23.5	23.5	90	21.0	0	0	---	0.00	30.385 
01:40	23.8	23.8	23.8	90	21.3	0	0	---	0.00	30.385 
01:45	23.9	23.9	23.9	90	21.4	0	0	---	0.00	30.377 
01:50	24.1	24.1	24.1	91	21.9	0	0	---	0.00	30.377 
01:55	24.2	24.2	24.2	91	22.0	0	0	---	0.00	30.377 
02:00	24.4	24.4	24.4	91	22.2	0	0	---	0.00	30.378 
02:05	24.5	24.5	24.5	91	22.3	0	0	---	0.00	30.378 
02:10	24.7	24.7	24.7	91	22.5	0	0	---	0.00	30.378 
02:15	24.5	24.5	24.5	91	22.3	0	0	---	0.00	30.385 
02:20	24.5	24.5	24.5	91	22.3	0	0	---	0.00	30.385 
02:25	24.4	24.4	24.4	91	22.2	0	0	---	0.00	30.385 
02:30	24.2	24.2	24.2	91	22.0	0	0	---	0.00	30.390 
02:35	23.9	23.9	23.9	90	21.4	0	0	---	0.00	30.390 
02:40	23.8	23.8	23.8	90	21.3	0	0	---	0.00	30.390 
02:45	23.5	23.5	23.5	90	21.0	0	0	---	0.00	30.376 
02:50	23.3	23.3	23.3	90	20.8	0	0	---	0.00	30.376 
02:55	23.2	23.2	23.2	90	20.7	0	0	---	0.00	30.376 
03:00	23.0	23.0	23.0	90	20.5	0	0	---	0.00	30.377 
03:05	22.9	22.9	22.9	90	20.4	0	0	---	0.00	30.377 
03:10	22.7	22.7	22.7	90	20.2	0	0	---	0.00	30.377 
03:15	22.5	22.5	22.5	90	20.0	0	0	---	0.00	30.377 
03:20	22.4	22.4	22.4	90	19.9	0	0	---	0.00	30.377 
03:25	22.4	22.4	22.4	90	19.9	0	0	---	0.00	30.377 
03:30	22.2	22.2	22.2	90	19.7	0	0	---	0.00	30.373 
03:35	22.1	22.1	22.1	90	19.6	0	0	---	0.00	30.373 
03:40	21.9	21.9	21.9	90	19.4	0	0	---	0.00	30.373 
03:45	21.9	21.9	21.9	90	19.4	0	0	---	0.00	30.364 
03:50	21.8	21.8	21.8	90	19.3	0	0	---	0.00	30.364 
03:55	21.6	21.6	21.6	90	19.1	0	0	---	0.00	30.364 
04:00	21.6	21.6	21.6	90	19.1	0	0	---	0.00	30.372 
04:05	21.6	21.6	21.6	90	19.1	0	0	---	0.00	30.372 
04:10	21.6	21.6	21.6	90	19.1	0	0	---	0.00	30.372 
04:15	21.4	21.4	21.4	91	19.2	0	0	---	0.00	30.365 
04:20	21.4	21.4	21.4	90	18.9	0	0	---	0.00	30.365 
04:25	21.3	21.3	21.3	90	18.8	0	0	---	0.00	30.365 
04:30	21.3	21.3	21.3	90	18.8	0	0	---	0.00	30.365 
04:35	21.1	21.1	21.1	90	18.6	0	0	---	0.00	30.365 
04:40	21.1	21.1	21.1	90	18.6	0	0	---	0.00	30.365 
04:45	21.1	21.1	21.1	91	18.9	0	0	---	0.00	30.366 
04:50	21.1	21.1	21.1	91	18.9	0	0	---	0.00	30.366 
04:55	21.1	21.1	21.1	91	18.9	0	0	---	0.00	30.366 
05:00	21.1	21.1	21.1	91	18.9	0	0	---	0.00	30.368 
05:05	21.0	21.0	21.0	91	18.8	0	0	---	0.00	30.368 
05:10	21.0	21.0	21.0	91	18.8	0	0	---	0.00	30.368 
05:15	21.0	21.0	21.0	91	18.8	0	0	---	0.00	30.368 
05:20	20.8	20.8	20.8	91	18.6	0	0	---	0.00	30.368 
05:25	21.0	21.0	21.0	91	18.8	0	0	---	0.00	30.368 
05:30	21.0	21.0	21.0	91	18.8	0	0	---	0.00	30.372 
05:35	21.0	21.0	21.0	91	18.8	0	0	---	0.00	30.372 
05:40	21.0	21.0	21.0	91	18.8	0	0	---	0.00	30.372 
05:45	21.0	21.0	21.0	91	18.8	0	0	---	0.00	30.375 
05:50	20.8	20.8	20.8	91	18.6	0	0	---	0.00	30.375 
05:55	21.0	21.0	21.0	91	18.8	0	0	---	0.00	30.375 
06:00	21.0	21.0	21.0	91	18.8	0	0	---	0.00	30.371 
06:05	21.1	21.1	21.1	91	18.9	0	0	---	0.00	30.371 
06:10	21.3	21.3	21.3	91	19.1	0	0	---	0.00	30.371 
06:15	21.3	21.3	21.3	91	19.1	0	0	---	0.00	30.380 
06:20	21.3	21.3	21.3	91	19.1	0	0	---	0.00	30.380 
06:25	21.1	21.1	21.1	91	18.9	0	0	---	0.00	30.380 
06:30	21.1	21.1	21.1	91	18.9	0	0	---	0.00	30.370 
06:35	21.1	21.1	21.1	91	18.9	0	0	---	0.00	30.370 
06:40	21.1	21.1	21.1	91	18.9	0	0	---	0.00	30.370 
06:45	21.3	21.3	21.3	91	19.1	0	0	---	0.00	30.365 
06:50	21.3	21.3	21.3	91	19.1	0	0	---	0.00	30.365 
06:55	21.4	21.4	21.4	91	19.2	0	0	---	0.00	30.365 
07:00	21.6	21.6	21.6	91	19.4	0	0	---	0.00	30.350 
07:05	21.6	21.6	21.6	91	19.4	0	0	---	0.00	30.350 
07:10	21.6	21.6	21.6	91	19.4	0	0	---	0.00	30.350 
07:15	21.6	21.6	21.6	91	19.4	0	0	---	0.00	30.365 
07:20	21.4	21.4	21.4	91	19.2	0	0	---	0.00	30.365 
07:25	21.4	21.4	21.4	91	19.2	0	0	---	0.00	30.365 
07:30	21.4	21.4	21.4	91	19.2	0	0	---	0.00	30.365 
07:35	21.3	21.3	21.3	91	19.1	0	0	---	0.00	30.365 
07:40	21.3	21.3	21.3	91	19.1	0	0	---	0.00	30.365 
07:45	21.3	21.3	21.3	91	19.1	0	0	---	0.00	30.365 
07:50	21.3	21.3	21.3	91	19.1	0	0	---	0.00	30.365 
07:55	21.4	21.4	21.4	91	19.2	0	0	---	0.00	30.365 
08:00	21.4	21.4	21.4	91	19.2	0	0	---	0.00	30.366 
08:05	21.4	21.4	21.4	92	19.4	0	0	---	0.00	30.366 
08:10	21.6	21.6	21.6	92	19.6	0	0	---	0.00	30.366 
08:15	21.6	21.6	21.6	91	19.4	0	0	---	0.00	30.366 
08:20	21.8	21.8	21.8	92	19.8	0	0	---	0.00	30.366 
08:25	21.9	21.9	21.9	92	19.9	0	0	---	0.00	30.366 
08:30	22.1	22.1	22.1	92	20.1	0	0	---	0.00	30.371 
08:35	22.4	22.4	22.4	92	20.4	0	0	---	0.00	30.371 
08:40	22.5	22.5	22.5	92	20.5	0	0	---	0.00	30.371 
08:45	23.0	23.0	23.0	92	21.0	0	0	---	0.00	30.365 
08:50	23.5	23.5	23.5	92	21.5	0	1	270	0.00	30.365 
08:55	24.1	24.1	24.1	92	22.1	0	0	---	0.00	30.365 
09:00	24.5	24.5	24.5	92	22.5	0	2	270	0.00	30.360 
09:05	25.0	25.0	25.0	92	23.0	0	2	270	0.00	30.360 
09:10	25.4	25.4	25.4	92	23.4	0	2	270	0.00	30.360 
09:15	25.7	25.7	25.7	92	23.7	0	2	270	0.00	30.365 
09:20	26.0	26.0	26.0	92	24.0	0	2	270	0.00	30.365 
09:25	26.1	26.1	26.1	92	24.1	0	2	270	0.00	30.365 
09:30	26.4	26.4	26.4	92	24.4	0	1	270	0.00	30.366 
09:35	26.7	26.7	26.7	92	24.7	0	0	---	0.00	30.366 
09:40	26.9	26.9	26.9	92	24.9	0	0	---	0.00	30.366 
09:45	27.2	27.2	27.2	92	25.2	0	2	270	0.00	30.368 
09:50	27.5	27.5	27.5	92	25.5	0	2	270	0.00	30.368 
09:55	27.8	27.8	27.8	91	25.5	1	3	270	0.00	30.368 
10:00	27.9	27.9	27.9	91	25.6	1	3	248	0.00	30.369 
10:05	28.2	28.2	28.2	91	25.9	0	2	248	0.00	30.369 
10:10	28.4	28.4	28.4	90	25.8	1	3	248	0.00	30.369 
10:15	28.4	28.4	28.4	89	25.6	1	3	112	0.00	30.372 
10:20	28.5	28.5	28.5	89	25.7	2	4	112	0.00	30.372 
10:25	28.7	28.7	28.7	88	25.6	1	5	90	0.00	30.372 
10:30	28.8	28.8	28.8	88	25.7	1	2	90	0.00	30.390 
10:35	28.8	28.8	28.8	87	25.4	1	2	90	0.00	30.390 
10:40	29.0	29.0	29.0	87	25.6	0	2	90	0.00	30.390 
10:45	29.1	29.1	29.1	87	25.7	1	2	90	0.00	30.393 
10:50	29.3	29.3	29.3	87	25.9	0	2	90	0.00	30.393 
10:55	29.4	29.4	29.4	86	25.7	0	2	90	0.00	30.393 
11:00	29.5	29.5	29.5	86	25.8	1	2	90	0.00	30.400 
11:05	29.7	29.7	29.7	86	26.0	0	2	90	0.00	30.400 
11:10	29.7	29.7	29.7	85	25.8	1	3	90	0.00	30.400 
11:15	29.8	29.8	29.8	85	25.9	0	3	90	0.00	30.401 
11:20	30.0	30.0	30.0	84	25.8	0	3	90	0.00	30.401 
11:25	30.0	30.0	30.0	84	25.8	1	3	90	0.00	30.401 
11:30	30.1	30.1	30.1	84	25.9	0	2	90	0.00	30.379 
11:35	30.3	30.3	30.3	83	25.8	0	2	90	0.00	30.379 
11:40	30.1	30.1	30.1	82	25.3	2	4	90	0.00	30.379 
11:45	30.1	30.1	30.1	82	25.3	1	3	90	0.00	30.364 
11:50	30.1	30.1	30.1	82	25.3	1	3	90	0.00	30.364 
11:55	30.3	30.3	30.3	82	25.5	1	3	90	0.00	30.364 
12:00	30.3	30.3	30.3	82	25.5	1	4	90	0.00	30.348 
12:05	30.3	30.3	30.3	82	25.5	1	3	90	0.00	30.348 
12:10	30.3	30.3	30.3	82	25.5	1	4	90	0.00	30.348 
12:15	30.4	30.4	30.4	82	25.6	1	3	90	0.00	30.333 
12:20	30.6	30.6	30.6	82	25.8	1	4	90	0.00	30.333 
12:25	30.6	30.6	30.6	82	25.8	1	4	90	0.00	30.333 
12:30	30.4	30.4	30.4	81	25.3	1	3	90	0.00	30.328 
12:35	30.4	30.4	30.4	82	25.6	1	4	90	0.00	30.328 
12:40	30.4	30.4	30.4	82	25.6	1	3	90	0.00	30.328 
12:45	30.4	30.4	30.4	82	25.6	1	3	90	0.00	30.315 
12:50	30.4	30.4	30.4	82	25.6	2	5	90	0.00	30.315 
12:55	30.4	30.4	30.4	82	25.6	2	3	90	0.00	30.315 
13:00	30.4	30.4	30.4	83	25.9	1	4	90	0.00	30.304 
13:05	30.6	30.6	30.6	83	26.1	0	3	90	0.00	30.304 
13:10	30.6	30.6	30.6	83	26.1	1	2	90	0.00	30.304 
13:15	30.7	30.7	30.7	82	25.9	1	4	90	0.00	30.298 
13:20	30.6	30.6	30.6	82	25.8	1	2	90	0.00	30.298 
13:25	30.6	30.6	30.6	82	25.8	1	3	90	0.00	30.298 
13:30	30.4	30.4	30.4	83	25.9	1	3	90	0.00	30.300 
13:35	30.4	30.4	30.4	83	25.9	1	3	90	0.00	30.300 
13:40	30.4	30.4	30.4	82	25.6	1	2	90	0.00	30.300 
13:45	30.4	30.4	30.4	81	25.3	1	3	90	0.00	30.303 
13:50	30.4	30.4	30.4	81	25.3	1	3	90	0.00	30.303 
13:55	30.6	30.6	30.6	82	25.8	1	3	90	0.00	30.303 
14:00	30.6	30.6	30.6	82	25.8	1	3	90	0.00	30.307 
14:05	30.6	30.6	30.6	81	25.5	0	3	90	0.00	30.307 
14:10	30.7	30.7	30.7	82	25.9	1	2	90	0.00	30.307 
14:15	30.7	30.7	30.7	81	25.6	1	2	90	0.00	30.309 
14:20	30.7	30.7	30.7	81	25.6	1	2	90	0.00	30.309 
14:25	30.7	30.7	30.7	81	25.6	1	3	90	0.00	30.309 
14:30	30.7	30.7	30.7	81	25.6	1	2	90	0.00	30.306 
14:35	30.7	30.7	30.7	81	25.6	0	2	90	0.00	30.306 
14:40	30.7	30.7	30.7	81	25.6	1	4	90	0.00	30.306 
14:45	30.7	30.7	30.7	82	25.9	1	3	90	0.00	30.304 
14:50	30.9	30.9	30.9	82	26.1	0	2	90	0.00	30.304 
14:55	30.9	30.9	30.9	82	26.1	0	2	90	0.00	30.304 
15:00	30.9	30.9	30.9	82	26.1	0	2	90	0.00	30.298 
15:05	31.0	31.0	31.0	82	26.2	1	3	90	0.00	30.298 
15:10	31.0	31.0	31.0	81	25.9	1	3	90	0.00	30.298 
15:15	30.9	30.9	30.9	81	25.8	1	3	90	0.00	30.300 
15:20	30.9	30.9	30.9	82	26.1	0	2	90	0.00	30.300 
15:25	30.9	30.9	30.9	82	26.1	1	4	90	0.00	30.300 
15:30	30.9	30.9	30.9	82	26.1	1	3	90	0.00	30.299 
15:35	30.9	30.9	30.9	82	26.1	1	3	90	0.00	30.299 
15:40	30.9	30.9	30.9	82	26.1	1	2	90	0.00	30.299 
15:45	30.9	30.9	30.9	82	26.1	0	2	90	0.00	30.286 
15:50	30.9	30.9	30.9	82	26.1	0	2	90	0.00	30.286 
15:55	31.0	31.0	31.0	82	26.2	0	1	90	0.00	30.286 
16:00	31.0	31.0	31.0	82	26.2	0	2	90	0.00	30.285 
16:05	31.0	31.0	31.0	82	26.2	0	1	90	0.00	30.285 
16:10	31.0	31.0	31.0	82	26.2	0	2	90	0.00	30.285 
16:15	31.0	31.0	31.0	82	26.2	0	1	90	0.00	30.276 
16:20	31.0	31.0	31.0	83	26.5	0	2	90	0.00	30.276 
16:25	30.9	30.9	30.9	84	26.6	0	1	90	0.00	30.276 
16:30	30.9	30.9	30.9	84	26.6	0	2	90	0.00	30.269 
16:35	30.7	30.7	30.7	85	26.7	0	1	90	0.00	30.269 
16:40	30.7	30.7	30.7	85	26.7	1	3	90	0.00	30.269 
16:45	30.7	30.7	30.7	86	27.0	0	2	90	0.00	30.260 
16:50	30.6	30.6	30.6	87	27.2	1	3	90	0.00	30.260 
16:55	30.6	30.6	30.6	87	27.2	1	3	90	0.00	30.260 
17:00	30.6	30.6	30.6	88	27.5	0	2	90	0.00	30.256 
17:05	30.6	30.6	30.6	88	27.5	0	2	90	0.00	30.256 
17:10	30.6	30.6	30.6	88	27.5	0	2	90	0.00	30.256 
17:15	30.4	30.4	30.4	88	27.3	0	2	90	0.00	30.267 
17:20	30.4	30.4	30.4	89	27.6	0	2	90	0.00	30.267 
17:25	30.4	30.4	30.4	89	27.6	1	3	90	0.00	30.267 
17:30	30.3	30.3	30.3	89	27.5	1	3	90	0.00	30.256 
17:35	30.3	30.3	30.3	89	27.5	1	3	90	0.00	30.256 
17:40	30.4	30.4	30.4	90	27.8	0	2	112	0.00	30.256 
17:45	30.4	30.4	30.4	90	27.8	1	5	112	0.00	30.253 
17:50	30.3	30.3	30.3	90	27.7	1	3	112	0.00	30.253 
17:55	30.3	30.3	30.3	90	27.7	1	2	135	0.00	30.253 
18:00	30.3	30.3	30.3	90	27.7	1	5	90	0.00	30.247 
18:05	30.3	30.3	30.3	91	28.0	2	4	90	0.00	30.247 
18:10	30.3	30.3	30.3	91	28.0	1	7	112	0.00	30.247 
18:15	30.3	30.3	30.3	91	28.0	1	3	90	0.00	30.240 
18:20	30.4	30.4	30.4	91	28.1	1	5	90	0.00	30.240 
18:25	30.4	30.4	30.4	91	28.1	1	4	90	0.00	30.240 
18:30	30.4	30.4	30.4	91	28.1	0	1	90	0.00	30.250 
18:35	30.4	30.4	30.4	92	28.4	0	2	90	0.00	30.250 
18:40	30.4	30.4	30.4	92	28.4	0	3	90	0.00	30.250 
18:45	30.4	30.4	30.4	92	28.4	1	3	90	0.00	30.253 
18:50	30.4	30.4	30.4	92	28.4	1	4	90	0.00	30.253 
18:55	30.4	30.4	30.4	92	28.4	2	6	90	0.00	30.253 
19:00	30.4	30.4	30.4	92	28.4	1	3	90	0.00	30.235 
19:05	30.4	30.4	30.4	92	28.4	1	4	112	0.00	30.235 
19:10	30.4	30.4	30.4	92	28.4	1	3	112	0.00	30.235 
19:15	30.4	30.4	30.4	92	28.4	1	3	112	0.00	30.239 
19:20	30.4	30.4	30.4	92	28.4	1	3	112	0.00	30.239 
19:25	30.4	30.4	30.4	92	28.4	1	3	112	0.00	30.239 
19:30	30.4	30.4	30.4	92	28.4	1	4	112	0.00	30.229 
19:35	30.6	30.6	30.6	92	28.6	1	4	112	0.00	30.229 
19:40	30.6	30.6	30.6	92	28.6	1	2	112	0.00	30.229 
19:45	30.6	30.6	30.6	92	28.6	2	4	90	0.00	30.225 
19:50	30.6	30.6	30.6	92	28.6	1	3	90	0.00	30.225 
19:55	30.6	30.6	30.6	92	28.6	1	3	90	0.00	30.225 
20:00	30.6	30.6	30.6	92	28.6	1	4	90	0.00	30.215 
20:05	30.6	30.6	30.6	92	28.6	1	2	90	0.00	30.215 
20:10	30.6	30.6	30.6	93	28.8	2	4	90	0.00	30.215 
20:15	30.6	30.6	30.6	93	28.8	2	4	90	0.00	30.196 
20:20	30.6	30.6	30.6	93	28.8	2	4	90	0.00	30.196 
20:25	30.6	30.6	30.6	93	28.8	1	4	90	0.00	30.196 
20:30	30.7	30.7	30.7	93	28.9	1	2	90	0.00	30.192 
20:35	30.7	30.7	30.7	93	28.9	0	3	90	0.00	30.192 
20:40	30.7	30.7	30.7	93	28.9	0	3	90	0.00	30.192 
20:45	30.7	30.7	30.7	93	28.9	0	2	90	0.00	30.191 
20:50	30.7	30.7	30.7	93	28.9	2	5	90	0.00	30.191 
20:55	30.6	30.6	30.6	93	28.8	1	3	90	0.00	30.191 
21:00	30.6	30.6	30.6	93	28.8	1	4	90	0.00	30.187 
21:05	30.6	30.6	30.6	93	28.8	2	6	90	0.00	30.187 
21:10	30.6	30.6	30.6	93	28.8	2	4	90	0.00	30.187 
21:15	30.6	30.6	30.6	93	28.8	3	7	90	0.00	30.169 
21:20	30.6	30.6	30.6	93	28.8	3	5	90	0.00	30.169 
21:25	30.6	30.6	30.6	93	28.8	2	4	68	0.00	30.169 
21:30	30.6	30.6	30.6	93	28.8	2	4	112	0.00	30.160 
21:35	30.6	30.6	30.6	93	28.8	2	7	112	0.00	30.160 
21:40	30.6	30.6	30.6	93	28.8	3	6	90	0.00	30.160 
21:45	30.6	30.6	30.6	94	29.1	2	4	90	0.00	30.157 
21:50	30.7	30.7	30.7	94	29.2	2	4	90	0.00	30.157 
21:55	30.7	30.7	30.7	94	29.2	2	4	90	0.00	30.157 
22:00	30.7	30.7	30.7	94	29.2	2	5	90	0.00	30.163 
22:05	30.7	30.7	30.7	94	29.2	2	4	90	0.00	30.163 
22:10	30.7	30.7	30.7	94	29.2	2	3	90	0.00	30.163 
22:15	30.7	30.7	30.7	94	29.2	2	3	90	0.00	30.160 
22:20	30.7	30.7	30.7	94	29.2	1	4	90	0.00	30.160 
22:25	30.9	30.9	30.9	94	29.4	1	3	90	0.00	30.160 
22:30	30.9	30.9	30.9	94	29.4	0	2	90	0.00	30.167 
22:35	30.9	30.9	30.9	94	29.4	1	4	90	0.00	30.167 
22:40	30.9	30.9	30.9	94	29.4	1	3	90	0.00	30.167 
22:45	30.9	30.9	30.9	94	29.4	1	3	90	0.00	30.163 
22:50	31.0	31.0	31.0	94	29.5	1	4	90	0.00	30.163 
22:55	31.0	31.0	31.0	94	29.5	1	3	90	0.00	30.163 
23:00	31.2	31.2	31.2	94	29.7	0	2	90	0.00	30.154 
23:05	31.2	31.2	31.2	94	29.7	1	3	90	0.00	30.154 
23:10	31.2	31.2	31.2	94	29.7	1	3	90	0.00	30.154 
23:15	31.2	31.2	31.2	94	29.7	0	3	112	0.00	30.155 
23:20	31.3	31.3	31.3	94	29.8	0	2	112	0.00	30.155 
23:25	31.3	31.3	31.3	94	29.8	1	3	112	0.00	30.155 
23:30	31.3	31.3	31.3	94	29.8	0	2	112	0.00	30.152 
23:35	31.3	31.3	31.3	94	29.8	1	3	135	0.00	30.152 
23:40	31.2	31.2	31.2	94	29.7	1	4	135	0.00	30.152 
23:45	31.2	31.2	31.2	94	29.7	1	3	135	0.00	30.137 
23:50	31.2	31.2	31.2	94	29.7	2	3	135	0.00	30.137 
23:55	31.2	31.2	31.2	94	29.7	1	3	90	0.00	30.137 

CoCoRaHS
IN-AL-39
A2 Web Hosting
Creative Commons License
GoDaddy
search engine by freefind advanced

loaded 2018-11-13 18:10:43 • last modified 2010-11-18 10:43:29
Privacy PolicyDisclaimer
• wx.awcolley.com is powered by PmWiki v.2002016 •
• all content (unless otherwise noted) © 2018 A W Colley